首页
METAR-TAF:

METAR-TAF

机场 :

Marquette, 密歇根州, 美国

纬度: 46-21-13N, 经度: 087-23-45W, 海拔: 372米

当前天气观测

该预报发布于36分钟前的01:47 UTC
风速4节,风向南转西南
温度 2°C
湿度 87%
气压 1011 hPa
能見度: 16.1公里
阴天层高于7500英尺

METAR: KSAW 200147Z 20004KT 10SM OVC075 02/00 A2986

时间: 21:23 (02:23 UTC)

预报

该预报发布于2小时和56分钟前的23:27 UTC
预报有效从20日的 00点(UTC)到 20日的 24点(UTC)
风速节,风向
能見度: 10公里
阴天层高于2500英尺
短暂存在
从 20日的 00点(UTC)到 20日的 02点(UTC)
散云层高于2500英尺
阴天层高于7000英尺
从 20日的 0800点(UTC)
风速节,风向
能見度: 10公里
阴天层高于1800英尺
从 20日的 2000点(UTC)
风速4节,风向
能見度: 10公里
阴天层高于2100英尺

TAF: KSAW 192327Z 2000/2024 00000KT P6SM OVC025 TEMPO 2000/2002 SCT025 OVC070 FM200800 00000KT P6SM OVC018 FM202000 19004KT P6SM OVC021

超过4000个机场的气象观测和天气预报(METAR&TAF报告)。

可查询的气象台以黄色和红色小点在地图上表示。

将鼠标移到小点上方,可查看气象台名称。

然后点击查看天气观测和预报。

如需切换地图:点击带黑十字的绿色按钮放大地图;点击带横线的绿色按钮缩小地图;或者点击绿色箭头查看邻近地区的地图。


METAR-TAF: